Impacts TAF Board
For situational awareness. Not to be used for flight planning purposes.
IDs:

KTLH - Tallahassee Intl, FL, US

Issued at 1724 UTC 23 Jan 2019
Updated at 1753 UTC 23 Jan 2019
Potential Impact None Slight Moderate High
Time<<24/06Z 24/07Z 24/08Z 24/09Z 24/10Z 24/11Z 24/12Z 24/13Z 24/14Z 24/15Z 24/16Z 24/17Z 24/18Z>>
Type PRVL PRVL PRVL PRVL PRVL PRVL PRVL PRVL PRVL PRVL PRVL PRVL
VIS 4 4 4 4 >6 >6 >6 >6 >6 >6 >6 >6
CIG 15 15 15 15 7 7 7 7 20 20 20 20
Cover BKN BKN BKN BKN BKN BKN BKN BKN BKN BKN BKN BKN
FltCat MVFR MVFR MVFR MVFR IFR IFR IFR IFR MVFR MVFR MVFR MVFR
WX SHRA SHRA SHRA SHRA -- -- -- -- -- -- -- --
WDir 170 170 170 170 270 270 270 270 300 300 300 300
WSpd 20 20 20 20 14 14 14 14 10 10 10 10
WGst 35 35 35 35 -- -- -- -- -- -- -- --
Raw TAF
KTLH 231724Z 2318/2418 17018G30KT P6SM SCT025 BKN050
  FM240000 17020G35KT 4SM SHRA BKN015
  FM241000 27014KT P6SM BKN007
  FM241400 30010KT P6SM BKN020


METAR Board
Radar Display
Forecast Discussion
For situational awareness. Not to be used for flight planning purposes.